THYNA LTFM-LEPA
Flight info
| Callsign | THYNA |
|---|---|
| Flight time | 2h 25m |
| Altitude | 38000 |
| Route | BARPE1D/35L BARPE UM603 SUTIS DCT DISOR DCT ENFAR DCT VAKSU/N0460F400 DCT AIOSA/N0456F390 DCT MUJAC DCT AFCAM DCT INSOX DCT PIDUL DCT GOKMI DCT SUPUX DCT KUPIM DCT SUXER DCT RIPAL DCT MORSS |
| Aircraft | A339/H-SADE1E2E3GHIJ3J5M1P2RWXY/LB2D1 |
Departure
| Time | 2026-05-05 18:28 |
|---|---|
| Airport | İstanbul Airport (LTFM) |
Arrival
| Time | 2026-05-05 20:53 |
|---|---|
| Airport | Palma de Mallorca Airport (LEPA) |
| Time | Latitude | Longitude | Altitude | Speed | Heading |
|---|---|---|---|---|---|
| 2026-05-05 17:56 | 41.26790 | 28.73750 | 319 ft | 0 kts | 269° |
| 2026-05-05 18:12 | 41.26790 | 28.73763 | 319 ft | 2 kts | 269° |
| 2026-05-05 18:12 | 41.26790 | 28.73772 | 317 ft | 0 kts | 269° |
| 2026-05-05 18:12 | 41.26792 | 28.73804 | 315 ft | 7 kts | 258° |
| 2026-05-05 18:12 | 41.26791 | 28.73854 | 315 ft | 4 kts | 316° |
| 2026-05-05 18:13 | 41.26769 | 28.73874 | 315 ft | 0 kts | 359° |
| 2026-05-05 18:19 | 41.26783 | 28.73873 | 315 ft | 6 kts | 359° |
| 2026-05-05 18:19 | 41.26832 | 28.73872 | 317 ft | 8 kts | 359° |
| 2026-05-05 18:19 | 41.26892 | 28.73870 | 319 ft | 9 kts | 359° |
| 2026-05-05 18:20 | 41.26956 | 28.73852 | 318 ft | 10 kts | 331° |
| 2026-05-05 18:20 | 41.26968 | 28.73839 | 317 ft | 2 kts | 317° |
| 2026-05-05 18:20 | 41.26965 | 28.73786 | 317 ft | 10 kts | 269° |
| 2026-05-05 18:20 | 41.26964 | 28.73687 | 318 ft | 12 kts | 269° |
| 2026-05-05 18:21 | 41.26961 | 28.73575 | 318 ft | 13 kts | 268° |
| 2026-05-05 18:21 | 41.26958 | 28.73453 | 317 ft | 14 kts | 268° |
| 2026-05-05 18:21 | 41.26991 | 28.73342 | 317 ft | 13 kts | 322° |
| 2026-05-05 18:21 | 41.27039 | 28.73260 | 316 ft | 12 kts | 278° |
| 2026-05-05 18:22 | 41.27038 | 28.73139 | 313 ft | 15 kts | 271° |
| 2026-05-05 18:22 | 41.27039 | 28.72994 | 312 ft | 12 kts | 270° |
| 2026-05-05 18:22 | 41.27039 | 28.72988 | 312 ft | 0 kts | 270° |
| 2026-05-05 18:22 | 41.27037 | 28.72985 | 312 ft | 2 kts | 261° |
| 2026-05-05 18:23 | 41.27004 | 28.72982 | 314 ft | 6 kts | 169° |
| 2026-05-05 18:23 | 41.26946 | 28.72989 | 314 ft | 10 kts | 178° |
| 2026-05-05 18:23 | 41.26862 | 28.72993 | 317 ft | 14 kts | 178° |
| 2026-05-05 18:23 | 41.26763 | 28.72993 | 317 ft | 12 kts | 184° |
| 2026-05-05 18:24 | 41.26724 | 28.72952 | 316 ft | 0 kts | 242° |
| 2026-05-05 18:26 | 41.26721 | 28.72943 | 316 ft | 5 kts | 247° |
| 2026-05-05 18:26 | 41.26715 | 28.72835 | 314 ft | 19 kts | 268° |
| 2026-05-05 18:26 | 41.26712 | 28.72605 | 316 ft | 29 kts | 270° |
| 2026-05-05 18:26 | 41.26808 | 28.72512 | 315 ft | 17 kts | 0° |
| 2026-05-05 18:27 | 41.26822 | 28.72512 | 314 ft | 1 kts | 0° |
| 2026-05-05 18:27 | 41.27048 | 28.72509 | 308 ft | 78 kts | 359° |
| 2026-05-05 18:27 | 41.27871 | 28.72493 | 285 ft | 154 kts | 359° |
| 2026-05-05 18:27 | 41.29084 | 28.72479 | 536 ft | 185 kts | 0° |
| 2026-05-05 18:28 | 41.31709 | 28.72449 | 2352 ft | 184 kts | 359° |
| 2026-05-05 18:28 | 41.33037 | 28.72373 | 3014 ft | 200 kts | 352° |
| 2026-05-05 18:28 | 41.34386 | 28.71708 | 3564 ft | 217 kts | 329° |
| 2026-05-05 18:29 | 41.35471 | 28.70189 | 3996 ft | 241 kts | 302° |
| 2026-05-05 18:29 | 41.35925 | 28.67949 | 4432 ft | 263 kts | 274° |
| 2026-05-05 18:29 | 41.35595 | 28.65510 | 4935 ft | 273 kts | 256° |
| 2026-05-05 18:29 | 41.34885 | 28.63147 | 5159 ft | 278 kts | 250° |
| 2026-05-05 18:30 | 41.34104 | 28.60783 | 5849 ft | 278 kts | 251° |
| 2026-05-05 18:30 | 41.33378 | 28.58392 | 6570 ft | 280 kts | 253° |
| 2026-05-05 18:30 | 41.32714 | 28.55949 | 7234 ft | 282 kts | 255° |
| 2026-05-05 18:30 | 41.32095 | 28.53498 | 7892 ft | 285 kts | 256° |
| 2026-05-05 18:31 | 41.31480 | 28.50978 | 8573 ft | 288 kts | 257° |
| 2026-05-05 18:31 | 41.30862 | 28.48429 | 9286 ft | 291 kts | 257° |
| 2026-05-05 18:31 | 41.30235 | 28.45847 | 9974 ft | 295 kts | 257° |
| 2026-05-05 18:31 | 41.29596 | 28.43221 | 10439 ft | 306 kts | 257° |
| 2026-05-05 18:32 | 41.28920 | 28.40437 | 10626 ft | 326 kts | 256° |
| 2026-05-05 18:32 | 41.28198 | 28.37484 | 10840 ft | 344 kts | 256° |
| 2026-05-05 18:32 | 41.27444 | 28.34444 | 11384 ft | 349 kts | 256° |
| 2026-05-05 18:32 | 41.26677 | 28.31367 | 11976 ft | 352 kts | 256° |
| 2026-05-05 18:33 | 41.25905 | 28.28264 | 12565 ft | 356 kts | 256° |
| 2026-05-05 18:33 | 41.25124 | 28.25125 | 13166 ft | 359 kts | 256° |
| 2026-05-05 18:33 | 41.24336 | 28.21955 | 13770 ft | 363 kts | 256° |
| 2026-05-05 18:33 | 41.23542 | 28.18761 | 14299 ft | 366 kts | 256° |
| 2026-05-05 18:34 | 41.22739 | 28.15538 | 14862 ft | 369 kts | 256° |
| 2026-05-05 18:34 | 41.21930 | 28.12296 | 15402 ft | 371 kts | 255° |
| 2026-05-05 18:34 | 41.21114 | 28.09030 | 15939 ft | 374 kts | 255° |
| 2026-05-05 18:34 | 41.20290 | 28.05735 | 16469 ft | 377 kts | 255° |
| 2026-05-05 18:35 | 41.19459 | 28.02421 | 17031 ft | 379 kts | 255° |
| 2026-05-05 18:35 | 41.18622 | 27.99088 | 17563 ft | 382 kts | 255° |
| 2026-05-05 18:35 | 41.17778 | 27.95729 | 18096 ft | 385 kts | 255° |
| 2026-05-05 18:35 | 41.16937 | 27.92393 | 18589 ft | 388 kts | 255° |
| 2026-05-05 18:36 | 41.16080 | 27.88996 | 19086 ft | 390 kts | 255° |
| 2026-05-05 18:36 | 41.15216 | 27.85573 | 19546 ft | 392 kts | 255° |
| 2026-05-05 18:36 | 41.14346 | 27.82135 | 20036 ft | 395 kts | 255° |
| 2026-05-05 18:36 | 41.13469 | 27.78671 | 20519 ft | 397 kts | 255° |
| 2026-05-05 18:37 | 41.12585 | 27.75184 | 20991 ft | 400 kts | 255° |
| 2026-05-05 18:37 | 41.11695 | 27.71682 | 21468 ft | 403 kts | 255° |
| 2026-05-05 18:37 | 41.10795 | 27.68147 | 21954 ft | 406 kts | 255° |
| 2026-05-05 18:37 | 41.09890 | 27.64595 | 22432 ft | 408 kts | 254° |
| 2026-05-05 18:38 | 41.08976 | 27.61016 | 22905 ft | 412 kts | 254° |
| 2026-05-05 18:38 | 41.08054 | 27.57410 | 23391 ft | 414 kts | 254° |
| 2026-05-05 18:38 | 41.07126 | 27.53785 | 23841 ft | 417 kts | 254° |
| 2026-05-05 18:38 | 41.06189 | 27.50133 | 24275 ft | 419 kts | 254° |
| 2026-05-05 18:39 | 41.05566 | 27.47711 | 24563 ft | 421 kts | 254° |
| 2026-05-05 18:39 | 41.04620 | 27.44033 | 24979 ft | 423 kts | 254° |
| 2026-05-05 18:39 | 41.03670 | 27.40344 | 25398 ft | 425 kts | 254° |
| 2026-05-05 18:39 | 41.02709 | 27.36620 | 25810 ft | 428 kts | 254° |
| 2026-05-05 18:40 | 41.01743 | 27.32882 | 26234 ft | 430 kts | 254° |
| 2026-05-05 18:40 | 41.00456 | 27.27908 | 26786 ft | 433 kts | 255° |
| 2026-05-05 18:40 | 40.99475 | 27.24128 | 27196 ft | 435 kts | 255° |
| 2026-05-05 18:40 | 40.98809 | 27.21561 | 27448 ft | 437 kts | 255° |
| 2026-05-05 18:41 | 40.97817 | 27.17747 | 27855 ft | 439 kts | 255° |
| 2026-05-05 18:41 | 40.96819 | 27.13915 | 28242 ft | 442 kts | 255° |
| 2026-05-05 18:41 | 40.95815 | 27.10066 | 28633 ft | 444 kts | 255° |
| 2026-05-05 18:41 | 40.94818 | 27.06252 | 29033 ft | 445 kts | 255° |
| 2026-05-05 18:42 | 40.93803 | 27.02372 | 29390 ft | 448 kts | 255° |
| 2026-05-05 18:42 | 40.92903 | 26.98432 | 29753 ft | 447 kts | 261° |
| 2026-05-05 18:42 | 40.92384 | 26.94399 | 30123 ft | 444 kts | 268° |
| 2026-05-05 18:42 | 40.92156 | 26.90328 | 30453 ft | 445 kts | 270° |
| 2026-05-05 18:43 | 40.91939 | 26.86241 | 30815 ft | 446 kts | 270° |
| 2026-05-05 18:43 | 40.91709 | 26.82145 | 31176 ft | 448 kts | 270° |
| 2026-05-05 18:43 | 40.91471 | 26.78034 | 31511 ft | 449 kts | 270° |
| 2026-05-05 18:43 | 40.91227 | 26.73909 | 31861 ft | 451 kts | 270° |
| 2026-05-05 18:44 | 40.90981 | 26.69768 | 32187 ft | 453 kts | 270° |
| 2026-05-05 18:44 | 40.90733 | 26.65605 | 32481 ft | 455 kts | 270° |
| 2026-05-05 18:44 | 40.90483 | 26.61431 | 32755 ft | 456 kts | 270° |
| 2026-05-05 18:44 | 40.90229 | 26.57243 | 32985 ft | 458 kts | 270° |
| 2026-05-05 18:45 | 40.89973 | 26.53035 | 33202 ft | 460 kts | 270° |
| 2026-05-05 18:45 | 40.89715 | 26.48824 | 33410 ft | 461 kts | 270° |
| 2026-05-05 18:45 | 40.89455 | 26.44599 | 33595 ft | 462 kts | 270° |
| 2026-05-05 18:45 | 40.89193 | 26.40375 | 33813 ft | 461 kts | 270° |
| 2026-05-05 18:46 | 40.88929 | 26.36149 | 34065 ft | 461 kts | 270° |
| 2026-05-05 18:46 | 40.88665 | 26.31939 | 34272 ft | 460 kts | 270° |
| 2026-05-05 18:46 | 40.88404 | 26.27789 | 34464 ft | 459 kts | 270° |
| 2026-05-05 18:46 | 40.88135 | 26.23587 | 34660 ft | 459 kts | 270° |
| 2026-05-05 18:47 | 40.87779 | 26.19393 | 34845 ft | 460 kts | 268° |
| 2026-05-05 18:47 | 40.87355 | 26.15205 | 35048 ft | 459 kts | 267° |
| 2026-05-05 18:47 | 40.86921 | 26.11026 | 35240 ft | 459 kts | 267° |
| 2026-05-05 18:47 | 40.86497 | 26.06856 | 35453 ft | 458 kts | 267° |
| 2026-05-05 18:48 | 40.86081 | 26.02693 | 35651 ft | 457 kts | 267° |
| 2026-05-05 18:48 | 40.85672 | 25.98537 | 35784 ft | 457 kts | 267° |
| 2026-05-05 18:48 | 40.85262 | 25.94367 | 35961 ft | 457 kts | 267° |
| 2026-05-05 18:48 | 40.84793 | 25.90208 | 36137 ft | 458 kts | 266° |
| 2026-05-05 18:49 | 40.84278 | 25.86061 | 36318 ft | 458 kts | 265° |
| 2026-05-05 18:49 | 40.83755 | 25.81914 | 36491 ft | 458 kts | 265° |
| 2026-05-05 18:49 | 40.83237 | 25.77767 | 36670 ft | 457 kts | 265° |
| 2026-05-05 18:49 | 40.82725 | 25.73632 | 36844 ft | 457 kts | 265° |
| 2026-05-05 18:50 | 40.82217 | 25.69498 | 37029 ft | 456 kts | 265° |
| 2026-05-05 18:50 | 40.81709 | 25.65361 | 37185 ft | 456 kts | 265° |
| 2026-05-05 18:50 | 40.81201 | 25.61234 | 37345 ft | 456 kts | 265° |
| 2026-05-05 18:50 | 40.80691 | 25.57098 | 37507 ft | 456 kts | 265° |
| 2026-05-05 18:51 | 40.80180 | 25.52974 | 37656 ft | 456 kts | 265° |
| 2026-05-05 18:51 | 40.79667 | 25.48845 | 37822 ft | 456 kts | 265° |
| 2026-05-05 18:51 | 40.79153 | 25.44721 | 37991 ft | 455 kts | 265° |
| 2026-05-05 18:51 | 40.78638 | 25.40601 | 38039 ft | 455 kts | 265° |
| 2026-05-05 18:52 | 40.77603 | 25.32379 | 38043 ft | 453 kts | 265° |
| 2026-05-05 18:52 | 40.76567 | 25.24183 | 38041 ft | 453 kts | 265° |
| 2026-05-05 18:53 | 40.75525 | 25.15995 | 38037 ft | 452 kts | 265° |
| 2026-05-05 18:53 | 40.74479 | 25.07817 | 38041 ft | 452 kts | 265° |
| 2026-05-05 18:54 | 40.73426 | 24.99646 | 38045 ft | 452 kts | 265° |
| 2026-05-05 18:54 | 40.72368 | 24.91481 | 38046 ft | 452 kts | 265° |
| 2026-05-05 18:55 | 40.71312 | 24.83381 | 38044 ft | 451 kts | 265° |
| 2026-05-05 18:55 | 40.71036 | 24.75229 | 38043 ft | 442 kts | 279° |
| 2026-05-05 18:56 | 40.72294 | 24.67387 | 38042 ft | 435 kts | 292° |
| 2026-05-05 18:56 | 40.74440 | 24.59942 | 38044 ft | 435 kts | 294° |
| 2026-05-05 18:57 | 40.76558 | 24.52478 | 38049 ft | 434 kts | 294° |
| 2026-05-05 18:57 | 40.78662 | 24.45006 | 38049 ft | 434 kts | 293° |
| 2026-05-05 18:58 | 40.80760 | 24.37541 | 38047 ft | 434 kts | 293° |
| 2026-05-05 18:58 | 40.82855 | 24.30070 | 38044 ft | 434 kts | 293° |
| 2026-05-05 18:59 | 40.84942 | 24.22603 | 38049 ft | 433 kts | 293° |
| 2026-05-05 18:59 | 40.87023 | 24.15137 | 38039 ft | 433 kts | 293° |
| 2026-05-05 19:00 | 40.89102 | 24.07676 | 38031 ft | 431 kts | 293° |
| 2026-05-05 19:00 | 40.91164 | 24.00233 | 38028 ft | 432 kts | 293° |
| 2026-05-05 19:01 | 40.93224 | 23.92758 | 38038 ft | 432 kts | 293° |
| 2026-05-05 19:01 | 40.95283 | 23.85280 | 38021 ft | 433 kts | 292° |
| 2026-05-05 19:02 | 40.97338 | 23.77799 | 38024 ft | 433 kts | 292° |
| 2026-05-05 19:02 | 40.99388 | 23.70313 | 38036 ft | 432 kts | 292° |
| 2026-05-05 19:03 | 41.01432 | 23.62824 | 38027 ft | 432 kts | 292° |
| 2026-05-05 19:03 | 41.03471 | 23.55333 | 38024 ft | 432 kts | 292° |
| 2026-05-05 19:04 | 41.05503 | 23.47844 | 38021 ft | 432 kts | 292° |
| 2026-05-05 19:04 | 41.07529 | 23.40356 | 38022 ft | 432 kts | 292° |
| 2026-05-05 19:05 | 41.09548 | 23.32868 | 38023 ft | 431 kts | 292° |
| 2026-05-05 19:05 | 41.11561 | 23.25384 | 38024 ft | 431 kts | 292° |
| 2026-05-05 19:06 | 41.13554 | 23.17950 | 38023 ft | 430 kts | 292° |
| 2026-05-05 19:06 | 41.15554 | 23.10466 | 38020 ft | 430 kts | 292° |
| 2026-05-05 19:07 | 41.17547 | 23.02984 | 38020 ft | 430 kts | 292° |
| 2026-05-05 19:07 | 41.19534 | 22.95506 | 38020 ft | 429 kts | 291° |
| 2026-05-05 19:08 | 41.21515 | 22.88025 | 38017 ft | 429 kts | 291° |
| 2026-05-05 19:08 | 41.23488 | 22.80552 | 38014 ft | 428 kts | 291° |
| 2026-05-05 19:09 | 41.25442 | 22.73086 | 38008 ft | 428 kts | 291° |
| 2026-05-05 19:09 | 41.27275 | 22.65547 | 38008 ft | 428 kts | 290° |
| 2026-05-05 19:10 | 41.29099 | 22.58007 | 38004 ft | 428 kts | 290° |
| 2026-05-05 19:10 | 41.30933 | 22.50470 | 38005 ft | 428 kts | 290° |
| 2026-05-05 19:11 | 41.32764 | 22.42936 | 38003 ft | 428 kts | 290° |
| 2026-05-05 19:11 | 41.34590 | 22.35399 | 38009 ft | 428 kts | 290° |
| 2026-05-05 19:12 | 41.36410 | 22.27858 | 38003 ft | 428 kts | 290° |
| 2026-05-05 19:12 | 41.38224 | 22.20317 | 37999 ft | 427 kts | 290° |
| 2026-05-05 19:13 | 41.40032 | 22.12780 | 38007 ft | 427 kts | 290° |
| 2026-05-05 19:13 | 41.41836 | 22.05235 | 38013 ft | 427 kts | 290° |
| 2026-05-05 19:14 | 41.43635 | 21.97687 | 38013 ft | 427 kts | 290° |
| 2026-05-05 19:14 | 41.45427 | 21.90135 | 38017 ft | 427 kts | 290° |
| 2026-05-05 19:15 | 41.47202 | 21.82639 | 38015 ft | 427 kts | 290° |
| 2026-05-05 19:15 | 41.48993 | 21.75045 | 38018 ft | 426 kts | 290° |
| 2026-05-05 19:16 | 41.50753 | 21.67554 | 38021 ft | 426 kts | 290° |
| 2026-05-05 19:16 | 41.52523 | 21.60003 | 38019 ft | 426 kts | 290° |
| 2026-05-05 19:17 | 41.54286 | 21.52456 | 38022 ft | 426 kts | 290° |
| 2026-05-05 19:17 | 41.56043 | 21.44907 | 38032 ft | 425 kts | 290° |
| 2026-05-05 19:18 | 41.57795 | 21.37359 | 38027 ft | 426 kts | 289° |
| 2026-05-05 19:18 | 41.59545 | 21.29791 | 38034 ft | 427 kts | 289° |
| 2026-05-05 19:19 | 41.61291 | 21.22211 | 38042 ft | 427 kts | 289° |
| 2026-05-05 19:19 | 41.63036 | 21.14617 | 38049 ft | 428 kts | 289° |
| 2026-05-05 19:20 | 41.64776 | 21.07011 | 38052 ft | 428 kts | 289° |
| 2026-05-05 19:20 | 41.66515 | 20.99385 | 38065 ft | 429 kts | 289° |
| 2026-05-05 19:21 | 41.68251 | 20.91754 | 38070 ft | 429 kts | 289° |
| 2026-05-05 19:21 | 41.69979 | 20.84120 | 38095 ft | 428 kts | 289° |
| 2026-05-05 19:22 | 41.71700 | 20.76491 | 38098 ft | 428 kts | 289° |
| 2026-05-05 19:22 | 41.73414 | 20.68872 | 38098 ft | 425 kts | 289° |
| 2026-05-05 19:23 | 41.75103 | 20.61342 | 38074 ft | 425 kts | 289° |
| 2026-05-05 19:23 | 41.76753 | 20.53730 | 38080 ft | 426 kts | 286° |
| 2026-05-05 19:24 | 41.77842 | 20.45929 | 38088 ft | 424 kts | 282° |
| 2026-05-05 19:24 | 41.78856 | 20.38130 | 38113 ft | 425 kts | 282° |
| 2026-05-05 19:25 | 41.79877 | 20.30334 | 38106 ft | 424 kts | 282° |
| 2026-05-05 19:25 | 41.80883 | 20.22562 | 38095 ft | 424 kts | 282° |
| 2026-05-05 19:26 | 41.81882 | 20.14776 | 38101 ft | 424 kts | 282° |
| 2026-05-05 19:26 | 41.82874 | 20.07002 | 38106 ft | 423 kts | 282° |
| 2026-05-05 19:27 | 41.83859 | 19.99224 | 38106 ft | 423 kts | 282° |
| 2026-05-05 19:27 | 41.84833 | 19.91504 | 38096 ft | 423 kts | 282° |
| 2026-05-05 19:28 | 41.85811 | 19.83725 | 38092 ft | 423 kts | 281° |
| 2026-05-05 19:28 | 41.86781 | 19.75943 | 38094 ft | 422 kts | 281° |
| 2026-05-05 19:29 | 41.87746 | 19.68176 | 38096 ft | 422 kts | 281° |
| 2026-05-05 19:29 | 41.88704 | 19.60403 | 38091 ft | 422 kts | 281° |
| 2026-05-05 19:30 | 41.89656 | 19.52629 | 38083 ft | 422 kts | 281° |
| 2026-05-05 19:30 | 41.90451 | 19.46108 | 38084 ft | 422 kts | 281° |
| 2026-05-05 19:31 | 41.91387 | 19.38388 | 38088 ft | 422 kts | 281° |
| 2026-05-05 19:31 | 41.92326 | 19.30607 | 38087 ft | 422 kts | 281° |
| 2026-05-05 19:32 | 41.93259 | 19.22828 | 38086 ft | 422 kts | 281° |
| 2026-05-05 19:32 | 41.94186 | 19.15054 | 38081 ft | 422 kts | 281° |
| 2026-05-05 19:33 | 41.95107 | 19.07279 | 38085 ft | 421 kts | 281° |
| 2026-05-05 19:33 | 41.96023 | 18.99504 | 38095 ft | 421 kts | 281° |
| 2026-05-05 19:34 | 41.96933 | 18.91732 | 38090 ft | 421 kts | 281° |
| 2026-05-05 19:35 | 41.98286 | 18.80081 | 38088 ft | 420 kts | 281° |
| 2026-05-05 19:35 | 41.99182 | 18.72316 | 38083 ft | 420 kts | 281° |
| 2026-05-05 19:36 | 42.00071 | 18.64559 | 38081 ft | 420 kts | 280° |
| 2026-05-05 19:36 | 42.00922 | 18.56849 | 38080 ft | 420 kts | 278° |
| 2026-05-05 19:37 | 42.01155 | 18.48991 | 38076 ft | 422 kts | 270° |
| 2026-05-05 19:37 | 42.00688 | 18.41120 | 38075 ft | 423 kts | 268° |
| 2026-05-05 19:38 | 42.00197 | 18.33251 | 38071 ft | 422 kts | 268° |
| 2026-05-05 19:38 | 41.99704 | 18.25394 | 38068 ft | 422 kts | 268° |
| 2026-05-05 19:39 | 41.99201 | 18.17542 | 38064 ft | 421 kts | 268° |
| 2026-05-05 19:39 | 41.98692 | 18.09702 | 38063 ft | 421 kts | 268° |
| 2026-05-05 19:40 | 41.98178 | 18.01873 | 38063 ft | 420 kts | 268° |
| 2026-05-05 19:40 | 41.97660 | 17.94061 | 38056 ft | 420 kts | 268° |
| 2026-05-05 19:41 | 41.97136 | 17.86249 | 38056 ft | 419 kts | 268° |
| 2026-05-05 19:41 | 41.96608 | 17.78448 | 38054 ft | 419 kts | 268° |
| 2026-05-05 19:42 | 41.96075 | 17.70650 | 38051 ft | 419 kts | 268° |
| 2026-05-05 19:42 | 41.95537 | 17.62861 | 38047 ft | 419 kts | 268° |
| 2026-05-05 19:43 | 41.94997 | 17.55128 | 38042 ft | 419 kts | 268° |
| 2026-05-05 19:43 | 41.94449 | 17.47343 | 38040 ft | 419 kts | 267° |
| 2026-05-05 19:44 | 41.93895 | 17.39557 | 38039 ft | 419 kts | 267° |
| 2026-05-05 19:44 | 41.93336 | 17.31767 | 38038 ft | 419 kts | 267° |
| 2026-05-05 19:45 | 41.92830 | 17.23970 | 38030 ft | 418 kts | 271° |
| 2026-05-05 19:45 | 41.92842 | 17.16176 | 38030 ft | 418 kts | 272° |
| 2026-05-05 19:46 | 41.92863 | 17.08372 | 38030 ft | 418 kts | 272° |
| 2026-05-05 19:46 | 41.92868 | 17.00558 | 38029 ft | 419 kts | 272° |
| 2026-05-05 19:47 | 41.92867 | 16.92734 | 38029 ft | 419 kts | 272° |
| 2026-05-05 19:47 | 41.92870 | 16.84908 | 38029 ft | 419 kts | 272° |
| 2026-05-05 19:48 | 41.92941 | 16.77076 | 38027 ft | 420 kts | 273° |
| 2026-05-05 19:48 | 41.93012 | 16.69241 | 38029 ft | 420 kts | 273° |
| 2026-05-05 19:49 | 41.93068 | 16.61400 | 38031 ft | 420 kts | 272° |
| 2026-05-05 19:49 | 41.93117 | 16.53555 | 38029 ft | 420 kts | 272° |
| 2026-05-05 19:50 | 41.93160 | 16.45709 | 38028 ft | 420 kts | 272° |
| 2026-05-05 19:50 | 41.93197 | 16.37862 | 38028 ft | 420 kts | 272° |
| 2026-05-05 19:51 | 41.93230 | 16.30015 | 38028 ft | 420 kts | 272° |
| 2026-05-05 19:51 | 41.93257 | 16.22170 | 38033 ft | 420 kts | 272° |
| 2026-05-05 19:52 | 41.93279 | 16.14325 | 38034 ft | 420 kts | 272° |
| 2026-05-05 19:52 | 41.93295 | 16.06482 | 38041 ft | 420 kts | 272° |
| 2026-05-05 19:53 | 41.93306 | 15.98691 | 38052 ft | 420 kts | 272° |
| 2026-05-05 19:53 | 41.93312 | 15.90847 | 38051 ft | 420 kts | 272° |
| 2026-05-05 19:54 | 41.93312 | 15.83001 | 38050 ft | 420 kts | 271° |
| 2026-05-05 19:54 | 41.93215 | 15.75153 | 38047 ft | 420 kts | 269° |
| 2026-05-05 19:55 | 41.92943 | 15.67314 | 38045 ft | 420 kts | 269° |
| 2026-05-05 19:55 | 41.92688 | 15.59466 | 38041 ft | 421 kts | 269° |
| 2026-05-05 19:56 | 41.92422 | 15.51615 | 38035 ft | 421 kts | 269° |
| 2026-05-05 19:56 | 41.92147 | 15.43765 | 38028 ft | 421 kts | 269° |
| 2026-05-05 19:57 | 41.91867 | 15.35911 | 38018 ft | 421 kts | 269° |
| 2026-05-05 19:57 | 41.91581 | 15.28052 | 38015 ft | 421 kts | 269° |
| 2026-05-05 19:58 | 41.91290 | 15.20195 | 38016 ft | 422 kts | 269° |
| 2026-05-05 19:58 | 41.90993 | 15.12334 | 38015 ft | 422 kts | 268° |
| 2026-05-05 19:59 | 41.90691 | 15.04476 | 38019 ft | 421 kts | 268° |
| 2026-05-05 19:59 | 41.90383 | 14.96616 | 38020 ft | 422 kts | 268° |
| 2026-05-05 20:00 | 41.90070 | 14.88764 | 38018 ft | 421 kts | 268° |
| 2026-05-05 20:00 | 41.89752 | 14.80914 | 38025 ft | 421 kts | 268° |
| 2026-05-05 20:01 | 41.89429 | 14.73069 | 38027 ft | 421 kts | 268° |
| 2026-05-05 20:01 | 41.89101 | 14.65228 | 38037 ft | 421 kts | 268° |
| 2026-05-05 20:02 | 41.88768 | 14.57388 | 38039 ft | 420 kts | 268° |
| 2026-05-05 20:02 | 41.88431 | 14.49612 | 38044 ft | 420 kts | 268° |
| 2026-05-05 20:03 | 41.88087 | 14.41801 | 38046 ft | 419 kts | 267° |
| 2026-05-05 20:03 | 41.87740 | 14.34000 | 38047 ft | 419 kts | 267° |
| 2026-05-05 20:04 | 41.87388 | 14.26201 | 38050 ft | 419 kts | 267° |
| 2026-05-05 20:04 | 41.87029 | 14.18392 | 38058 ft | 419 kts | 267° |
| 2026-05-05 20:05 | 41.86689 | 14.11088 | 38057 ft | 419 kts | 267° |
| 2026-05-05 20:05 | 41.86320 | 14.03286 | 38067 ft | 419 kts | 267° |
| 2026-05-05 20:06 | 41.85438 | 13.85063 | 38066 ft | 419 kts | 266° |
| 2026-05-05 20:06 | 41.83865 | 13.53974 | 38090 ft | 417 kts | 266° |
| 2026-05-05 20:07 | 41.81945 | 13.22888 | 38053 ft | 418 kts | 259° |
| 2026-05-05 20:07 | 41.74726 | 12.93164 | 38026 ft | 422 kts | 252° |
| 2026-05-05 20:08 | 41.67059 | 12.63520 | 38080 ft | 420 kts | 252° |
| 2026-05-05 20:08 | 41.59321 | 12.33999 | 38018 ft | 421 kts | 251° |
| 2026-05-05 20:09 | 41.51530 | 12.04636 | 38034 ft | 419 kts | 251° |
| 2026-05-05 20:09 | 41.43690 | 11.75435 | 38028 ft | 418 kts | 251° |
| 2026-05-05 20:10 | 41.35781 | 11.46325 | 38027 ft | 418 kts | 250° |
| 2026-05-05 20:10 | 41.27795 | 11.17275 | 38017 ft | 418 kts | 250° |
| 2026-05-05 20:11 | 41.19731 | 10.88272 | 38004 ft | 419 kts | 250° |
| 2026-05-05 20:11 | 41.11588 | 10.59321 | 38006 ft | 419 kts | 249° |
| 2026-05-05 20:12 | 41.03396 | 10.30426 | 37989 ft | 418 kts | 249° |
| 2026-05-05 20:12 | 40.95357 | 10.01564 | 37979 ft | 417 kts | 249° |
| 2026-05-05 20:13 | 40.87259 | 9.72860 | 37993 ft | 416 kts | 249° |
| 2026-05-05 20:13 | 40.79100 | 9.44268 | 37993 ft | 415 kts | 249° |
| 2026-05-05 20:14 | 40.70906 | 9.15857 | 37994 ft | 414 kts | 249° |
| 2026-05-05 20:14 | 40.62713 | 8.87755 | 37960 ft | 413 kts | 248° |
| 2026-05-05 20:15 | 40.54400 | 8.59547 | 37989 ft | 413 kts | 248° |
| 2026-05-05 20:15 | 40.46017 | 8.31411 | 37995 ft | 412 kts | 248° |
| 2026-05-05 20:15 | 40.43355 | 8.16748 | 37979 ft | 416 kts | 264° |
| 2026-05-05 20:16 | 40.42775 | 8.05393 | 37964 ft | 416 kts | 263° |
| 2026-05-05 20:16 | 40.42219 | 7.97846 | 37970 ft | 414 kts | 258° |
| 2026-05-05 20:17 | 40.41258 | 7.90392 | 37972 ft | 414 kts | 258° |
| 2026-05-05 20:17 | 40.40315 | 7.82936 | 37965 ft | 414 kts | 258° |
| 2026-05-05 20:18 | 40.39370 | 7.75488 | 37964 ft | 414 kts | 258° |
| 2026-05-05 20:18 | 40.38419 | 7.68042 | 37962 ft | 414 kts | 258° |
| 2026-05-05 20:19 | 40.37625 | 7.61859 | 37961 ft | 414 kts | 258° |
| 2026-05-05 20:19 | 40.36665 | 7.54422 | 37961 ft | 413 kts | 258° |
| 2026-05-05 20:20 | 40.34263 | 7.36007 | 37960 ft | 412 kts | 258° |
| 2026-05-05 20:20 | 40.30349 | 7.06433 | 37955 ft | 411 kts | 258° |
| 2026-05-05 20:21 | 40.26377 | 6.76973 | 37949 ft | 410 kts | 258° |
| 2026-05-05 20:21 | 40.22337 | 6.47623 | 37943 ft | 409 kts | 257° |
| 2026-05-05 20:22 | 40.18233 | 6.18379 | 37944 ft | 408 kts | 257° |
| 2026-05-05 20:22 | 40.14074 | 5.89287 | 37938 ft | 406 kts | 257° |
| 2026-05-05 20:23 | 40.09619 | 5.57825 | 37935 ft | 406 kts | 257° |
| 2026-05-05 20:23 | 40.05812 | 5.31367 | 37929 ft | 405 kts | 257° |
| 2026-05-05 20:23 | 40.03723 | 5.17022 | 35871 ft | 402 kts | 257° |
| 2026-05-05 20:24 | 40.01600 | 5.02599 | 32459 ft | 408 kts | 256° |
| 2026-05-05 20:24 | 39.99409 | 4.87850 | 31924 ft | 418 kts | 256° |
| 2026-05-05 20:24 | 39.96984 | 4.73083 | 31926 ft | 416 kts | 252° |
| 2026-05-05 20:25 | 39.91707 | 4.47367 | 31392 ft | 411 kts | 253° |
| 2026-05-05 20:25 | 39.90968 | 4.43788 | 30763 ft | 408 kts | 253° |
| 2026-05-05 20:25 | 39.90230 | 4.40222 | 30184 ft | 405 kts | 253° |
| 2026-05-05 20:25 | 39.89500 | 4.36699 | 29455 ft | 401 kts | 253° |
| 2026-05-05 20:26 | 39.88671 | 4.32709 | 28605 ft | 397 kts | 253° |
| 2026-05-05 20:26 | 39.88054 | 4.29743 | 27983 ft | 394 kts | 253° |
| 2026-05-05 20:26 | 39.87340 | 4.26313 | 27274 ft | 391 kts | 253° |
| 2026-05-05 20:26 | 39.86631 | 4.22914 | 26580 ft | 388 kts | 253° |
| 2026-05-05 20:27 | 39.85924 | 4.19539 | 25885 ft | 385 kts | 253° |
| 2026-05-05 20:27 | 39.85213 | 4.16193 | 25218 ft | 382 kts | 253° |
| 2026-05-05 20:27 | 39.84503 | 4.12873 | 24535 ft | 380 kts | 253° |
| 2026-05-05 20:27 | 39.83796 | 4.09573 | 23881 ft | 377 kts | 253° |
| 2026-05-05 20:28 | 39.83094 | 4.06296 | 23269 ft | 374 kts | 253° |
| 2026-05-05 20:28 | 39.82402 | 4.03063 | 23004 ft | 370 kts | 253° |
| 2026-05-05 20:28 | 39.81717 | 3.99869 | 22934 ft | 373 kts | 253° |
| 2026-05-05 20:28 | 39.81018 | 3.96613 | 22932 ft | 373 kts | 253° |
| 2026-05-05 20:29 | 39.80320 | 3.93363 | 22927 ft | 373 kts | 253° |
| 2026-05-05 20:29 | 39.79622 | 3.90118 | 22929 ft | 373 kts | 253° |
| 2026-05-05 20:29 | 39.78927 | 3.86891 | 22888 ft | 367 kts | 253° |
| 2026-05-05 20:29 | 39.78249 | 3.83738 | 22786 ft | 356 kts | 253° |
| 2026-05-05 20:30 | 39.77609 | 3.80691 | 22675 ft | 343 kts | 253° |
| 2026-05-05 20:30 | 39.77001 | 3.77759 | 22391 ft | 330 kts | 253° |
| 2026-05-05 20:30 | 39.76408 | 3.74904 | 21798 ft | 326 kts | 253° |
| 2026-05-05 20:30 | 39.75811 | 3.72042 | 20951 ft | 330 kts | 253° |
| 2026-05-05 20:31 | 39.75215 | 3.69146 | 20084 ft | 334 kts | 253° |
| 2026-05-05 20:31 | 39.74395 | 3.66326 | 19233 ft | 336 kts | 240° |
| 2026-05-05 20:31 | 39.72912 | 3.63980 | 18418 ft | 340 kts | 223° |
| 2026-05-05 20:31 | 39.70886 | 3.62362 | 17516 ft | 348 kts | 206° |
| 2026-05-05 20:32 | 39.68506 | 3.61650 | 16603 ft | 357 kts | 189° |
| 2026-05-05 20:32 | 39.66003 | 3.61941 | 15719 ft | 368 kts | 172° |
| 2026-05-05 20:32 | 39.63610 | 3.63244 | 14841 ft | 379 kts | 154° |
| 2026-05-05 20:32 | 39.61570 | 3.65463 | 14033 ft | 390 kts | 137° |
| 2026-05-05 20:33 | 39.60003 | 3.68358 | 13146 ft | 391 kts | 129° |
| 2026-05-05 20:33 | 39.58222 | 3.70925 | 12245 ft | 379 kts | 145° |
| 2026-05-05 20:33 | 39.56014 | 3.72576 | 11847 ft | 353 kts | 164° |
| 2026-05-05 20:33 | 39.53718 | 3.73139 | 11642 ft | 323 kts | 184° |
| 2026-05-05 20:34 | 39.51607 | 3.72661 | 11480 ft | 297 kts | 202° |
| 2026-05-05 20:34 | 39.49801 | 3.71586 | 11314 ft | 276 kts | 213° |
| 2026-05-05 20:34 | 39.48277 | 3.70238 | 11172 ft | 256 kts | 221° |
| 2026-05-05 20:34 | 39.47026 | 3.68718 | 11052 ft | 238 kts | 229° |
| 2026-05-05 20:35 | 39.46053 | 3.67092 | 10881 ft | 222 kts | 237° |
| 2026-05-05 20:35 | 39.45322 | 3.65356 | 10468 ft | 219 kts | 246° |
| 2026-05-05 20:35 | 39.45027 | 3.63421 | 9940 ft | 225 kts | 272° |
| 2026-05-05 20:35 | 39.45545 | 3.61510 | 9482 ft | 231 kts | 301° |
| 2026-05-05 20:36 | 39.46664 | 3.60016 | 9056 ft | 232 kts | 312° |
| 2026-05-05 20:36 | 39.47829 | 3.58595 | 8775 ft | 224 kts | 312° |
| 2026-05-05 20:36 | 39.48928 | 3.57258 | 8686 ft | 209 kts | 312° |
| 2026-05-05 20:36 | 39.49948 | 3.56031 | 8585 ft | 193 kts | 312° |
| 2026-05-05 20:37 | 39.50899 | 3.54894 | 8477 ft | 180 kts | 312° |
| 2026-05-05 20:37 | 39.51804 | 3.53817 | 8251 ft | 175 kts | 312° |
| 2026-05-05 20:37 | 39.52695 | 3.52749 | 7960 ft | 174 kts | 312° |
| 2026-05-05 20:37 | 39.53576 | 3.51683 | 7681 ft | 172 kts | 312° |
| 2026-05-05 20:38 | 39.54432 | 3.50640 | 7318 ft | 169 kts | 312° |
| 2026-05-05 20:38 | 39.55282 | 3.49590 | 6870 ft | 168 kts | 312° |
| 2026-05-05 20:38 | 39.56132 | 3.48568 | 6326 ft | 168 kts | 318° |
| 2026-05-05 20:38 | 39.57260 | 3.48109 | 5711 ft | 176 kts | 356° |
| 2026-05-05 20:39 | 39.58465 | 3.48276 | 5242 ft | 173 kts | 2° |
| 2026-05-05 20:39 | 39.59648 | 3.48469 | 5002 ft | 174 kts | 2° |
| 2026-05-05 20:39 | 39.60856 | 3.48659 | 4935 ft | 174 kts | 2° |
| 2026-05-05 20:39 | 39.62021 | 3.48508 | 4947 ft | 167 kts | 333° |
| 2026-05-05 20:40 | 39.62836 | 3.47524 | 4932 ft | 160 kts | 295° |
| 2026-05-05 20:40 | 39.63134 | 3.46131 | 4931 ft | 162 kts | 282° |
| 2026-05-05 20:40 | 39.63379 | 3.44717 | 4931 ft | 160 kts | 282° |
| 2026-05-05 20:40 | 39.63620 | 3.43303 | 4901 ft | 161 kts | 282° |
| 2026-05-05 20:41 | 39.63864 | 3.41878 | 4940 ft | 161 kts | 282° |
| 2026-05-05 20:41 | 39.64100 | 3.40471 | 4929 ft | 159 kts | 282° |
| 2026-05-05 20:41 | 39.64334 | 3.39068 | 4927 ft | 159 kts | 282° |
| 2026-05-05 20:41 | 39.64566 | 3.37678 | 4879 ft | 155 kts | 282° |
| 2026-05-05 20:42 | 39.64792 | 3.36333 | 4646 ft | 151 kts | 282° |
| 2026-05-05 20:42 | 39.65013 | 3.35026 | 4221 ft | 150 kts | 282° |
| 2026-05-05 20:42 | 39.65241 | 3.33700 | 3984 ft | 151 kts | 282° |
| 2026-05-05 20:42 | 39.65478 | 3.32360 | 3930 ft | 151 kts | 282° |
| 2026-05-05 20:43 | 39.65452 | 3.31015 | 3974 ft | 152 kts | 258° |
| 2026-05-05 20:43 | 39.65196 | 3.29670 | 3936 ft | 152 kts | 257° |
| 2026-05-05 20:43 | 39.64934 | 3.28340 | 3932 ft | 153 kts | 257° |
| 2026-05-05 20:43 | 39.64673 | 3.26972 | 3935 ft | 158 kts | 258° |
| 2026-05-05 20:44 | 39.64417 | 3.25578 | 3933 ft | 158 kts | 258° |
| 2026-05-05 20:44 | 39.64174 | 3.24197 | 3933 ft | 159 kts | 258° |
| 2026-05-05 20:44 | 39.64027 | 3.22790 | 3921 ft | 157 kts | 276° |
| 2026-05-05 20:44 | 39.64259 | 3.21391 | 3934 ft | 159 kts | 282° |
| 2026-05-05 20:45 | 39.64732 | 3.18612 | 3935 ft | 158 kts | 282° |
| 2026-05-05 20:45 | 39.64970 | 3.17221 | 3945 ft | 159 kts | 282° |
| 2026-05-05 20:45 | 39.65213 | 3.15822 | 3940 ft | 159 kts | 282° |
| 2026-05-05 20:46 | 39.65458 | 3.14435 | 3934 ft | 157 kts | 282° |
| 2026-05-05 20:46 | 39.65701 | 3.13047 | 3937 ft | 158 kts | 282° |
| 2026-05-05 20:46 | 39.65943 | 3.11657 | 3933 ft | 159 kts | 282° |
| 2026-05-05 20:46 | 39.66185 | 3.10256 | 3934 ft | 159 kts | 282° |
| 2026-05-05 20:47 | 39.66424 | 3.08869 | 3940 ft | 158 kts | 282° |
| 2026-05-05 20:47 | 39.66664 | 3.07475 | 3939 ft | 158 kts | 282° |
| 2026-05-05 20:47 | 39.66905 | 3.06080 | 3937 ft | 159 kts | 282° |
| 2026-05-05 20:47 | 39.67152 | 3.04680 | 3937 ft | 159 kts | 282° |
| 2026-05-05 20:48 | 39.67398 | 3.03279 | 3941 ft | 159 kts | 282° |
| 2026-05-05 20:48 | 39.67407 | 3.01858 | 3947 ft | 160 kts | 259° |
| 2026-05-05 20:48 | 39.66999 | 3.00511 | 3943 ft | 161 kts | 244° |
| 2026-05-05 20:48 | 39.66417 | 2.99262 | 3940 ft | 162 kts | 239° |
| 2026-05-05 20:49 | 39.65817 | 2.98025 | 3853 ft | 162 kts | 241° |
| 2026-05-05 20:49 | 39.65235 | 2.96778 | 3661 ft | 161 kts | 241° |
| 2026-05-05 20:49 | 39.64651 | 2.95536 | 3458 ft | 162 kts | 241° |
| 2026-05-05 20:49 | 39.64065 | 2.94291 | 3255 ft | 160 kts | 241° |
| 2026-05-05 20:50 | 39.63488 | 2.93060 | 3046 ft | 160 kts | 241° |
| 2026-05-05 20:50 | 39.62909 | 2.91830 | 2829 ft | 160 kts | 241° |
| 2026-05-05 20:50 | 39.62330 | 2.90597 | 2618 ft | 160 kts | 241° |
| 2026-05-05 20:50 | 39.61750 | 2.89364 | 2409 ft | 160 kts | 240° |
| 2026-05-05 20:51 | 39.61173 | 2.88138 | 2199 ft | 159 kts | 240° |
| 2026-05-05 20:51 | 39.60595 | 2.86908 | 1985 ft | 160 kts | 240° |
| 2026-05-05 20:51 | 39.60018 | 2.85683 | 1761 ft | 159 kts | 240° |
| 2026-05-05 20:51 | 39.59434 | 2.84440 | 1645 ft | 163 kts | 240° |
| 2026-05-05 20:52 | 39.58841 | 2.83184 | 1847 ft | 167 kts | 240° |
| 2026-05-05 20:52 | 39.58169 | 2.81725 | 1535 ft | 206 kts | 241° |
| 2026-05-05 20:52 | 39.57421 | 2.80040 | 1018 ft | 231 kts | 240° |
| 2026-05-05 20:52 | 39.56558 | 2.78207 | 523 ft | 231 kts | 238° |
| 2026-05-05 20:53 | 39.55776 | 2.76623 | 142 ft | 195 kts | 237° |
| 2026-05-05 20:53 | 39.55124 | 2.75259 | 31 ft | 144 kts | 239° |
| 2026-05-05 20:53 | 39.54865 | 2.74705 | 32 ft | 33 kts | 241° |
| 2026-05-05 20:53 | 39.54809 | 2.74467 | 33 ft | 23 kts | 263° |
| 2026-05-05 20:54 | 39.54802 | 2.74294 | 34 ft | 12 kts | 268° |
| 2026-05-05 20:54 | 39.54801 | 2.74289 | 34 ft | 0 kts | 268° |
| 2026-05-05 20:54 | 39.54801 | 2.74290 | 34 ft | 0 kts | 268° |
| 2026-05-05 20:54 | 39.54801 | 2.74291 | 34 ft | 0 kts | 268° |
| 2026-05-05 20:55 | 39.54801 | 2.74292 | 34 ft | 0 kts | 268° |
| 2026-05-05 20:55 | 39.54801 | 2.74293 | 34 ft | 0 kts | 268° |
| 2026-05-05 20:55 | 39.54801 | 2.74294 | 34 ft | 0 kts | 268° |
| 2026-05-05 20:55 | 39.54801 | 2.74295 | 34 ft | 0 kts | 268° |
| 2026-05-05 20:56 | 39.54801 | 2.74281 | 34 ft | 5 kts | 268° |
| 2026-05-05 20:56 | 39.54802 | 2.74215 | 35 ft | 10 kts | 274° |
| 2026-05-05 20:56 | 39.54835 | 2.74121 | 35 ft | 14 kts | 316° |
| 2026-05-05 20:56 | 39.54933 | 2.74042 | 34 ft | 19 kts | 331° |
| 2026-05-05 20:57 | 39.55062 | 2.73946 | 32 ft | 23 kts | 330° |
| 2026-05-05 20:57 | 39.55202 | 2.73834 | 30 ft | 24 kts | 328° |
| 2026-05-05 20:57 | 39.55349 | 2.73714 | 28 ft | 26 kts | 327° |
| 2026-05-05 20:57 | 39.55463 | 2.73619 | 26 ft | 0 kts | 327° |
| 2026-05-05 20:58 | 39.55466 | 2.73616 | 26 ft | 2 kts | 327° |
| 2026-05-05 20:58 | 39.55485 | 2.73580 | 31 ft | 8 kts | 301° |
| 2026-05-05 20:58 | 39.55469 | 2.73508 | 29 ft | 10 kts | 240° |
| 2026-05-05 20:59 | 39.55424 | 2.73410 | 26 ft | 15 kts | 238° |
| 2026-05-05 20:59 | 39.55362 | 2.73282 | 27 ft | 19 kts | 238° |
| 2026-05-05 20:59 | 39.55285 | 2.73125 | 27 ft | 22 kts | 237° |
| 2026-05-05 20:59 | 39.55198 | 2.72943 | 28 ft | 25 kts | 242° |
| 2026-05-05 21:00 | 39.55107 | 2.72736 | 28 ft | 28 kts | 239° |
| 2026-05-05 21:00 | 39.55013 | 2.72531 | 28 ft | 20 kts | 243° |
| 2026-05-05 21:00 | 39.55029 | 2.72428 | 28 ft | 1 kts | 295° |
| 2026-05-05 21:00 | 39.55032 | 2.72401 | 28 ft | 5 kts | 285° |
| 2026-05-05 21:01 | 39.55032 | 2.72400 | 28 ft | 0 kts | 285° |